createdAt,value
2022-09-23T00:02:09.175Z,6.70
2022-09-23T00:04:37.389Z,8.10
2022-09-23T00:07:05.530Z,6.50
2022-09-23T00:09:34.995Z,11.60
2022-09-23T00:12:08.849Z,9.43
2022-09-23T00:14:38.923Z,10.97
2022-09-23T00:17:07.019Z,7.23
2022-09-23T00:19:35.287Z,6.43
2022-09-23T00:22:03.310Z,9.37
2022-09-23T00:24:32.496Z,7.23
2022-09-23T00:27:02.031Z,7.20
2022-09-23T00:29:30.265Z,8.00
2022-09-23T00:31:58.401Z,11.37
2022-09-23T00:34:26.822Z,12.00
2022-09-23T00:36:54.818Z,8.00
2022-09-23T00:39:23.091Z,7.03
2022-09-23T00:41:51.221Z,7.43
2022-09-23T00:44:49.982Z,7.53
2022-09-23T00:47:24.898Z,8.23
2022-09-23T00:50:02.085Z,7.13
2022-09-23T00:52:31.676Z,6.07
2022-09-23T00:55:02.113Z,9.00
2022-09-23T00:57:30.731Z,6.53
2022-09-23T01:00:00.618Z,8.63
2022-09-23T01:02:28.811Z,5.50
2022-09-23T01:04:56.899Z,6.40
2022-09-23T01:07:25.662Z,6.33
2022-09-23T01:09:53.948Z,6.33
2022-09-23T01:12:38.607Z,5.23
2022-09-23T01:15:14.346Z,6.10
2022-09-23T01:17:48.627Z,5.60
2022-09-23T01:20:43.095Z,4.90
2022-09-23T01:23:49.596Z,5.80
2022-09-23T01:26:31.554Z,6.30
2022-09-23T01:29:18.854Z,6.93
2022-09-23T01:31:54.545Z,8.60
2022-09-23T01:34:25.307Z,5.87
2022-09-23T01:36:56.753Z,11.30
2022-09-23T01:39:30.082Z,9.07
2022-09-23T01:42:02.600Z,13.67
2022-09-23T01:44:34.406Z,6.10
2022-09-23T01:47:10.942Z,7.30
2022-09-23T01:49:48.942Z,11.60
2022-09-23T01:52:23.148Z,8.97
2022-09-23T01:54:55.567Z,5.83
2022-09-23T01:57:26.728Z,7.00
2022-09-23T02:00:00.270Z,10.10
2022-09-23T02:02:32.998Z,8.10
2022-09-23T02:05:07.968Z,8.60
2022-09-23T02:07:41.452Z,10.47
2022-09-23T02:10:14.489Z,8.10
2022-09-23T02:12:45.803Z,7.97
2022-09-23T02:15:17.804Z,7.77
2022-09-23T02:17:50.826Z,6.77
2022-09-23T02:20:21.674Z,6.83
2022-09-23T02:22:53.548Z,9.33
2022-09-23T02:25:24.224Z,11.20
2022-09-23T02:27:57.200Z,9.07
2022-09-23T02:30:27.594Z,13.77
2022-09-23T02:33:04.238Z,8.50
2022-09-23T02:35:35.447Z,14.53
2022-09-23T02:38:14.759Z,12.67
2022-09-23T02:40:50.945Z,12.97
2022-09-23T02:43:23.582Z,8.10
2022-09-23T02:45:51.799Z,11.40
2022-09-23T02:48:23.520Z,8.97
2022-09-23T02:50:51.718Z,15.60
2022-09-23T02:53:22.099Z,8.73
2022-09-23T02:55:51.129Z,9.80
2022-09-23T02:58:19.341Z,9.97
2022-09-23T03:00:58.112Z,12.90
2022-09-23T03:03:38.199Z,9.97
2022-09-23T03:06:12.329Z,11.33
2022-09-23T03:08:48.168Z,7.97
2022-09-23T03:11:17.648Z,11.00
2022-09-23T03:13:55.553Z,15.03
2022-09-23T03:16:30.256Z,11.70
2022-09-23T03:19:05.806Z,12.33
2022-09-23T03:21:37.166Z,10.80
2022-09-23T03:24:07.596Z,8.40
2022-09-23T03:26:37.824Z,11.80
2022-09-23T03:29:07.355Z,12.40
2022-09-23T03:31:35.608Z,12.23
2022-09-23T03:34:15.047Z,10.90
2022-09-23T03:36:54.005Z,12.60
2022-09-23T03:39:29.657Z,13.23
2022-09-23T03:42:00.431Z,18.63
2022-09-23T03:44:29.679Z,9.17
2022-09-23T03:47:00.496Z,9.40
2022-09-23T03:49:36.587Z,11.13
2022-09-23T03:52:04.692Z,11.63
2022-09-23T03:54:33.981Z,7.90
2022-09-23T03:57:03.100Z,10.77
2022-09-23T03:59:31.600Z,11.23
2022-09-23T04:02:00.789Z,12.73
2022-09-23T04:04:34.344Z,9.73
2022-09-23T04:07:03.155Z,9.70
2022-09-23T04:09:31.326Z,8.70
2022-09-23T04:11:59.510Z,13.10
2022-09-23T04:14:27.807Z,13.87
2022-09-23T04:16:55.923Z,16.33
2022-09-23T04:19:24.236Z,11.63
2022-09-23T04:21:53.596Z,18.13
2022-09-23T04:24:21.817Z,13.63
2022-09-23T04:26:52.508Z,18.80
2022-09-23T04:29:20.730Z,13.10
2022-09-23T04:31:49.178Z,14.50
2022-09-23T04:34:17.804Z,15.20
2022-09-23T04:36:46.287Z,13.97
2022-09-23T04:39:17.175Z,13.80
2022-09-23T04:41:45.840Z,14.00
2022-09-23T04:44:14.533Z,12.03
2022-09-23T04:46:42.800Z,10.80
2022-09-23T04:49:11.251Z,13.30
2022-09-23T04:51:43.353Z,11.47
2022-09-23T04:54:11.926Z,11.60
2022-09-23T04:56:41.462Z,8.03
2022-09-23T04:59:09.863Z,9.73
2022-09-23T05:01:38.537Z,10.93
2022-09-23T05:04:08.673Z,10.67
2022-09-23T05:06:37.619Z,8.60
2022-09-23T05:09:07.588Z,11.63
2022-09-23T05:11:36.318Z,9.80
2022-09-23T05:14:05.875Z,10.27
2022-09-23T05:16:34.162Z,11.03
2022-09-23T05:19:02.516Z,12.87
2022-09-23T05:21:31.398Z,10.33
2022-09-23T05:24:00.876Z,14.03
2022-09-23T05:26:31.739Z,11.93
2022-09-23T05:29:00.531Z,7.93
2022-09-23T05:31:31.585Z,7.70
2022-09-23T05:34:01.304Z,22.83
2022-09-23T05:36:35.545Z,7.03
2022-09-23T05:39:06.690Z,15.80
2022-09-23T05:41:35.037Z,8.67
2022-09-23T05:44:03.468Z,9.57
2022-09-23T05:46:33.245Z,7.07
2022-09-23T05:49:03.496Z,12.30
2022-09-23T05:51:32.543Z,9.33
2022-09-23T05:54:04.154Z,7.23
2022-09-23T05:56:33.899Z,8.53
2022-09-23T05:59:03.269Z,4.40
2022-09-23T06:01:35.426Z,6.03
2022-09-23T06:04:05.622Z,5.20
2022-09-23T06:06:34.803Z,3.77
2022-09-23T06:09:03.195Z,3.60
2022-09-23T06:11:32.571Z,4.17
2022-09-23T06:14:02.182Z,3.40
2022-09-23T06:16:33.428Z,3.37
2022-09-23T06:19:05.943Z,3.23
2022-09-23T06:21:35.970Z,3.20
2022-09-23T06:24:04.724Z,5.30
2022-09-23T06:26:34.931Z,5.20
2022-09-23T06:29:03.971Z,5.30
2022-09-23T06:31:34.172Z,3.70
2022-09-23T06:34:10.978Z,3.63
2022-09-23T06:36:44.435Z,9.03
2022-09-23T06:39:12.890Z,9.87
2022-09-23T06:41:41.004Z,17.10
2022-09-23T06:44:09.065Z,13.20
2022-09-23T06:46:38.634Z,17.50
2022-09-23T06:49:06.774Z,6.43
2022-09-23T06:51:34.881Z,4.60
2022-09-23T06:54:03.557Z,3.53
2022-09-23T06:56:36.343Z,3.60
2022-09-23T06:59:07.152Z,4.40
2022-09-23T07:01:35.702Z,4.80
2022-09-23T07:04:05.424Z,7.33
2022-09-23T07:06:33.674Z,5.03
2022-09-23T07:09:02.114Z,4.47
2022-09-23T07:11:30.705Z,4.80
2022-09-23T07:13:59.105Z,4.50
2022-09-23T07:16:27.275Z,4.33
2022-09-23T07:18:56.424Z,3.70
2022-09-23T07:21:26.212Z,3.03
2022-09-23T07:23:55.486Z,3.97
2022-09-23T07:26:24.204Z,3.17
2022-09-23T07:28:55.753Z,4.63
2022-09-23T07:31:37.696Z,3.03
2022-09-23T07:34:07.876Z,4.90
2022-09-23T07:36:40.727Z,3.23
2022-09-23T07:39:09.548Z,3.90
2022-09-23T07:41:38.113Z,3.90
2022-09-23T07:44:06.552Z,5.60
2022-09-23T07:46:36.994Z,4.37
2022-09-23T07:49:06.603Z,3.77
2022-09-23T07:51:38.386Z,5.37
2022-09-23T07:54:08.925Z,4.00
2022-09-23T07:56:37.840Z,3.50
2022-09-23T07:59:08.896Z,4.43
2022-09-23T08:01:39.179Z,3.90
2022-09-23T08:04:09.167Z,3.70
2022-09-23T08:06:41.857Z,5.37
2022-09-23T08:09:10.551Z,6.10
2022-09-23T08:11:41.943Z,3.63
2022-09-23T08:14:10.571Z,4.90
2022-09-23T08:16:38.640Z,3.67
2022-09-23T08:19:06.915Z,3.70
2022-09-23T08:21:35.414Z,5.07
2022-09-23T08:24:05.212Z,4.03
2022-09-23T08:26:34.438Z,5.03
2022-09-23T08:29:02.549Z,4.47
2022-09-23T08:31:31.160Z,4.80
2022-09-23T08:34:00.313Z,3.53
2022-09-23T08:36:28.773Z,3.90
2022-09-23T08:38:57.386Z,3.20
2022-09-23T08:41:35.833Z,3.00
2022-09-23T08:44:06.224Z,5.37
2022-09-23T08:46:38.706Z,3.10
2022-09-23T08:49:07.863Z,3.10
2022-09-23T08:51:46.234Z,3.80
2022-09-23T08:54:15.675Z,1.90
2022-09-23T08:56:46.369Z,4.40
2022-09-23T08:59:17.690Z,2.70
2022-09-23T09:01:47.169Z,2.37
2022-09-23T09:04:20.469Z,2.57
2022-09-23T09:06:54.320Z,3.17
2022-09-23T09:09:26.584Z,2.87
2022-09-23T09:12:01.482Z,4.17
2022-09-23T09:14:36.541Z,2.70
2022-09-23T09:17:07.946Z,3.40
2022-09-23T09:19:56.548Z,3.40
2022-09-23T09:22:42.486Z,5.77
2022-09-23T09:25:22.562Z,3.20
2022-09-23T09:27:53.029Z,3.03
2022-09-23T09:30:25.079Z,4.63
2022-09-23T09:32:59.278Z,4.73
2022-09-23T09:35:36.842Z,3.53
2022-09-23T09:38:05.820Z,2.50
2022-09-23T09:40:35.659Z,3.20
2022-09-23T09:43:05.942Z,3.50
2022-09-23T09:45:48.458Z,4.40
2022-09-23T09:48:20.815Z,3.70
2022-09-23T09:50:50.071Z,5.80
2022-09-23T09:53:24.766Z,3.93
2022-09-23T09:56:06.899Z,2.67
2022-09-23T09:58:45.591Z,2.33
2022-09-23T10:01:21.086Z,2.77
2022-09-23T10:03:53.221Z,2.07
2022-09-23T10:06:26.021Z,6.30
2022-09-23T10:09:17.170Z,2.87
2022-09-23T10:12:05.837Z,2.63
2022-09-23T10:14:36.433Z,2.83
2022-09-23T10:17:06.428Z,2.43
2022-09-23T10:19:36.662Z,2.73
2022-09-23T10:22:09.918Z,3.40
2022-09-23T10:24:38.008Z,3.03
2022-09-23T10:27:08.814Z,4.70
2022-09-23T10:29:41.611Z,3.07
2022-09-23T10:32:21.716Z,2.50
2022-09-23T10:34:53.281Z,7.47
2022-09-23T10:37:28.142Z,2.77
2022-09-23T10:40:13.604Z,2.90
2022-09-23T10:43:11.021Z,2.43
2022-09-23T10:45:58.869Z,2.13
2022-09-23T10:48:38.665Z,2.67
2022-09-23T10:51:10.718Z,2.83
2022-09-23T10:53:47.559Z,1.97
2022-09-23T10:56:24.467Z,3.53
2022-09-23T10:59:22.374Z,2.50
2022-09-23T11:02:02.515Z,2.07
2022-09-23T11:04:54.758Z,2.60
2022-09-23T11:07:27.339Z,4.87
2022-09-23T11:10:45.014Z,5.70
2022-09-23T11:13:14.004Z,3.53
2022-09-23T11:15:49.882Z,2.37
2022-09-23T11:18:40.900Z,2.37
2022-09-23T11:21:28.754Z,4.60
2022-09-23T11:24:28.069Z,2.70
2022-09-23T11:27:04.283Z,3.30
2022-09-23T11:30:09.500Z,4.30
2022-09-23T11:33:14.467Z,4.67
2022-09-23T11:35:49.222Z,4.57
2022-09-23T11:38:21.483Z,4.00
2022-09-23T11:40:54.866Z,3.70
2022-09-23T11:43:24.551Z,4.47
2022-09-23T11:45:58.633Z,6.50
2022-09-23T11:48:31.967Z,3.33
2022-09-23T11:51:03.661Z,4.40
2022-09-23T11:53:39.239Z,4.57
2022-09-23T11:56:20.945Z,4.40
2022-09-23T11:59:00.073Z,6.43
2022-09-23T12:01:37.496Z,3.73
2022-09-23T12:04:18.963Z,5.07
2022-09-23T12:06:52.883Z,7.10
2022-09-23T12:09:47.053Z,3.67
2022-09-23T12:12:16.926Z,5.57
2022-09-23T12:15:00.323Z,4.87
2022-09-23T12:17:57.047Z,2.90
2022-09-23T12:20:56.246Z,5.13
2022-09-23T12:23:39.492Z,4.80
2022-09-23T12:26:10.192Z,2.80
2022-09-23T12:28:39.893Z,5.63
2022-09-23T12:31:11.380Z,2.20
2022-09-23T12:33:39.823Z,5.03
2022-09-23T12:36:09.544Z,3.33
2022-09-23T12:38:40.445Z,4.23
2022-09-23T12:41:22.880Z,3.37
2022-09-23T12:43:55.437Z,3.57
2022-09-23T12:46:26.041Z,7.03
2022-09-23T12:49:04.251Z,4.03
2022-09-23T12:51:33.817Z,6.00
2022-09-23T12:54:24.938Z,5.53
2022-09-23T12:57:01.814Z,3.73
2022-09-23T12:59:34.550Z,4.30
2022-09-23T13:02:24.400Z,3.73
2022-09-23T13:05:16.171Z,5.00
2022-09-23T13:07:46.655Z,4.17
2022-09-23T13:10:18.980Z,5.20
2022-09-23T13:12:47.924Z,2.60
2022-09-23T13:15:25.615Z,4.13
2022-09-23T13:17:53.681Z,3.63
2022-09-23T13:20:38.303Z,3.70
2022-09-23T13:23:22.838Z,5.40
2022-09-23T13:25:53.867Z,3.80
2022-09-23T13:28:38.353Z,2.13
2022-09-23T13:31:08.339Z,2.53
2022-09-23T13:33:42.064Z,2.53
2022-09-23T13:36:14.910Z,4.73
2022-09-23T13:38:43.582Z,7.60
2022-09-23T13:41:16.294Z,5.90
2022-09-23T13:43:46.579Z,6.00
2022-09-23T13:46:17.904Z,3.93
2022-09-23T13:48:47.344Z,4.90
2022-09-23T13:51:24.893Z,4.77
2022-09-23T13:53:55.428Z,6.70
2022-09-23T13:56:26.555Z,2.97
2022-09-23T13:58:56.119Z,7.33
2022-09-23T14:01:30.708Z,3.90
2022-09-23T14:03:59.134Z,4.57
2022-09-23T14:06:27.946Z,9.90
2022-09-23T14:08:56.842Z,8.63
2022-09-23T14:11:32.031Z,3.90
2022-09-23T14:14:07.746Z,3.60
2022-09-23T14:16:38.143Z,6.03
2022-09-23T14:19:06.721Z,5.27
2022-09-23T14:21:36.019Z,3.70
2022-09-23T14:24:22.343Z,3.20
2022-09-23T14:26:55.809Z,2.30
2022-09-23T14:29:26.075Z,5.90
2022-09-23T14:31:57.740Z,6.53
2022-09-23T14:34:42.537Z,4.53
2022-09-23T14:37:47.756Z,6.20
2022-09-23T14:40:18.352Z,4.67
2022-09-23T14:42:51.618Z,12.67
2022-09-23T14:45:21.913Z,7.80
2022-09-23T14:47:51.267Z,2.87
2022-09-23T14:50:39.776Z,3.57
2022-09-23T14:53:35.944Z,3.97
2022-09-23T14:56:15.828Z,8.23
2022-09-23T14:58:52.296Z,6.57
2022-09-23T15:01:39.007Z,9.07
2022-09-23T15:04:16.291Z,4.97
2022-09-23T15:06:49.593Z,3.20
2022-09-23T15:09:23.729Z,5.80
2022-09-23T15:11:58.221Z,5.50
2022-09-23T15:14:39.078Z,3.90
2022-09-23T15:17:15.655Z,4.63
2022-09-23T15:19:43.799Z,5.63
2022-09-23T15:22:13.214Z,7.77
2022-09-23T15:24:46.025Z,3.80
2022-09-23T15:27:30.953Z,3.17
2022-09-23T15:30:15.326Z,6.50
2022-09-23T15:32:44.271Z,4.23
2022-09-23T15:35:16.408Z,2.80
2022-09-23T15:37:46.192Z,3.70
2022-09-23T15:40:23.027Z,3.73
2022-09-23T15:42:52.754Z,4.90
2022-09-23T15:45:30.369Z,4.47
2022-09-23T15:48:03.351Z,2.93
2022-09-23T15:50:32.327Z,3.10
2022-09-23T15:53:00.506Z,5.13
2022-09-23T15:55:28.608Z,4.27
2022-09-23T15:57:57.349Z,3.60
2022-09-23T16:00:27.209Z,4.43
2022-09-23T16:02:55.378Z,3.10
2022-09-23T16:05:26.683Z,3.73
2022-09-23T16:07:55.323Z,2.93
2022-09-23T16:10:24.288Z,4.43
2022-09-23T16:12:53.888Z,2.00
2022-09-23T16:15:24.190Z,5.83
2022-09-23T16:17:53.611Z,5.03
2022-09-23T16:20:21.875Z,4.33
2022-09-23T16:22:54.417Z,5.33
2022-09-23T16:25:22.882Z,7.80
2022-09-23T16:27:55.744Z,3.37
2022-09-23T16:30:24.025Z,4.50
2022-09-23T16:32:53.551Z,5.13
2022-09-23T16:35:21.742Z,6.20
2022-09-23T16:37:50.830Z,6.13
2022-09-23T16:40:20.883Z,4.63
2022-09-23T16:42:49.197Z,3.30
2022-09-23T16:45:19.082Z,9.43
2022-09-23T16:47:48.905Z,6.27
2022-09-23T16:50:25.433Z,5.73
2022-09-23T16:52:56.221Z,6.40
2022-09-23T16:55:25.771Z,3.50
2022-09-23T16:57:54.782Z,15.53
2022-09-23T17:00:40.647Z,6.13
2022-09-23T17:03:26.649Z,9.80
2022-09-23T17:05:56.097Z,5.90
2022-09-23T17:08:24.134Z,7.53
2022-09-23T17:10:58.358Z,12.60
2022-09-23T17:13:26.895Z,8.93
2022-09-23T17:15:55.494Z,6.23
2022-09-23T17:18:23.585Z,10.73
2022-09-23T17:21:00.518Z,7.80
2022-09-23T17:23:28.713Z,8.97
2022-09-23T17:25:56.770Z,9.30
2022-09-23T17:28:25.469Z,10.40
2022-09-23T17:30:58.956Z,11.53
2022-09-23T17:33:27.437Z,7.63
2022-09-23T17:35:57.206Z,11.63
2022-09-23T17:38:29.357Z,13.00
2022-09-23T17:41:02.161Z,19.23
2022-09-23T17:43:31.690Z,16.83
2022-09-23T17:46:05.418Z,13.07
2022-09-23T17:48:35.172Z,16.00
2022-09-23T17:51:05.887Z,10.00
2022-09-23T17:53:37.035Z,9.10
2022-09-23T17:56:07.127Z,13.13
2022-09-23T17:58:36.758Z,10.50
2022-09-23T18:01:05.409Z,7.40
2022-09-23T18:03:33.636Z,9.73
2022-09-23T18:06:10.203Z,9.90
2022-09-23T18:08:40.296Z,9.23
2022-09-23T18:11:18.893Z,8.63
2022-09-23T18:13:51.359Z,5.97
2022-09-23T18:16:20.021Z,6.20
2022-09-23T18:18:52.201Z,8.40
2022-09-23T18:21:20.904Z,7.47
2022-09-23T18:23:50.730Z,6.97
2022-09-23T18:26:21.388Z,7.47
2022-09-23T18:28:49.634Z,4.10
2022-09-23T18:31:17.768Z,6.60
2022-09-23T18:33:50.410Z,7.90
2022-09-23T18:36:19.215Z,8.23
2022-09-23T18:38:47.327Z,6.93
2022-09-23T18:41:17.187Z,7.33
2022-09-23T18:43:48.524Z,10.10
2022-09-23T18:46:18.095Z,8.17
2022-09-23T18:49:03.521Z,8.80
2022-09-23T18:51:32.218Z,7.20
2022-09-23T18:54:02.105Z,10.30
2022-09-23T18:56:37.344Z,17.60
2022-09-23T18:59:06.410Z,9.83
2022-09-23T19:01:35.002Z,16.50
2022-09-23T19:04:03.536Z,12.17
2022-09-23T19:06:34.789Z,11.23
2022-09-23T19:09:03.299Z,9.80
2022-09-23T19:11:36.258Z,14.50
2022-09-23T19:14:06.738Z,16.87
2022-09-23T19:16:35.394Z,14.40
2022-09-23T19:19:04.540Z,10.07
2022-09-23T19:21:33.453Z,10.03
2022-09-23T19:24:03.516Z,10.37
2022-09-23T19:26:36.087Z,16.00
2022-09-23T19:29:05.112Z,10.37
2022-09-23T19:31:35.206Z,10.77
2022-09-23T19:34:06.087Z,8.17
2022-09-23T19:36:37.678Z,8.90
2022-09-23T19:39:08.500Z,10.37
2022-09-23T19:41:38.167Z,11.27
2022-09-23T19:44:07.654Z,12.70
2022-09-23T19:46:37.859Z,13.80
2022-09-23T19:49:07.639Z,14.37
2022-09-23T19:51:36.263Z,11.90
2022-09-23T19:54:06.604Z,15.83
2022-09-23T19:56:37.774Z,9.33
2022-09-23T19:59:09.454Z,8.23
2022-09-23T20:01:37.627Z,7.00
2022-09-23T20:04:06.132Z,9.53
2022-09-23T20:06:38.033Z,8.60
2022-09-23T20:09:06.821Z,7.93
2022-09-23T20:11:35.141Z,11.33
2022-09-23T20:14:04.941Z,6.33
2022-09-23T20:16:37.029Z,9.43
2022-09-23T20:19:06.003Z,7.83
2022-09-23T20:21:35.432Z,8.83
2022-09-23T20:24:06.537Z,9.40
2022-09-23T20:26:52.187Z,11.03
2022-09-23T20:29:20.326Z,6.63
2022-09-23T20:31:50.005Z,7.33
2022-09-23T20:34:19.572Z,9.37
2022-09-23T20:36:47.633Z,6.23
2022-09-23T20:39:15.898Z,5.70
2022-09-23T20:41:43.992Z,7.57
2022-09-23T20:44:13.956Z,8.27
2022-09-23T20:46:47.788Z,9.30
2022-09-23T20:49:18.679Z,6.20
2022-09-23T20:51:48.790Z,8.90
2022-09-23T20:54:18.964Z,13.10
2022-09-23T20:56:47.031Z,20.83
2022-09-23T20:59:17.621Z,18.23
2022-09-23T21:01:47.329Z,10.43
2022-09-23T21:04:17.347Z,6.43
2022-09-23T21:06:45.412Z,6.93
2022-09-23T21:09:13.444Z,12.97
2022-09-23T21:11:41.551Z,7.30
2022-09-23T21:14:09.775Z,6.70
2022-09-23T21:16:38.118Z,10.33
2022-09-23T21:19:08.032Z,9.47
2022-09-23T21:21:37.646Z,8.77
2022-09-23T21:24:40.109Z,9.00
2022-09-23T21:26:54.246Z,13.27
2022-09-23T21:29:22.436Z,6.50
2022-09-23T21:31:50.588Z,6.43
2022-09-23T21:34:19.351Z,6.77
2022-09-23T21:36:48.910Z,7.60
2022-09-23T21:39:17.110Z,6.63
2022-09-23T21:41:45.178Z,10.27
2022-09-23T21:44:13.299Z,10.10
2022-09-23T21:46:41.422Z,6.00
2022-09-23T21:49:09.809Z,8.30
2022-09-23T21:51:40.878Z,9.00
2022-09-23T21:54:14.384Z,6.30
2022-09-23T21:56:43.183Z,6.33
2022-09-23T21:59:11.761Z,7.63
2022-09-23T22:01:43.633Z,7.37
2022-09-23T22:04:15.745Z,7.80
2022-09-23T22:06:44.181Z,8.07
2022-09-23T22:09:18.426Z,11.20
2022-09-23T22:12:04.264Z,8.70
2022-09-23T22:14:32.485Z,11.03
2022-09-23T22:17:02.777Z,6.87
2022-09-23T22:19:35.366Z,9.00
2022-09-23T22:22:07.799Z,13.50
2022-09-23T22:24:37.164Z,11.70
2022-09-23T22:27:05.512Z,12.77
2022-09-23T22:29:50.973Z,10.20
2022-09-23T22:32:36.839Z,12.37
2022-09-23T22:35:05.897Z,8.90
2022-09-23T22:37:35.809Z,9.00
2022-09-23T22:40:06.109Z,9.90
2022-09-23T22:42:34.286Z,10.53
2022-09-23T22:45:03.558Z,10.57
2022-09-23T22:47:31.547Z,12.43
2022-09-23T22:49:59.563Z,20.87
2022-09-23T22:52:27.629Z,12.70
2022-09-23T22:54:55.672Z,30.87
2022-09-23T22:57:25.097Z,27.93
2022-09-23T22:59:53.151Z,25.50
2022-09-23T23:02:23.712Z,27.40
2022-09-23T23:04:52.209Z,31.50
2022-09-23T23:07:21.556Z,29.70
2022-09-23T23:09:50.378Z,21.10
2022-09-23T23:12:20.262Z,20.50
2022-09-23T23:14:50.441Z,10.90
2022-09-23T23:17:19.022Z,20.83
2022-09-23T23:19:47.470Z,14.90
2022-09-23T23:22:15.550Z,13.13
2022-09-23T23:24:43.706Z,13.03
2022-09-23T23:27:11.839Z,16.77
2022-09-23T23:29:39.838Z,25.83
2022-09-23T23:32:09.863Z,17.20
2022-09-23T23:34:37.895Z,16.20
2022-09-23T23:37:06.352Z,15.90
2022-09-23T23:39:34.929Z,16.63
2022-09-23T23:42:04.825Z,18.47
2022-09-23T23:44:34.502Z,16.33
2022-09-23T23:47:02.921Z,20.33
2022-09-23T23:49:32.381Z,19.30
2022-09-23T23:52:00.664Z,16.17
2022-09-23T23:54:28.682Z,20.00
2022-09-23T23:56:56.779Z,16.30
2022-09-23T23:59:24.785Z,19.37
